Friday, February 23, 2018, 6:32 PM GMT
Back to Local

CYHZ, Halifax International Airport

Location: , , Canada Lat: 44.883
Local Time: 6:32 PM GMT (18:32 GMT) Lon: -63.5
Time Zone: GMT Elev: 475 ft

Show me the last for .
Show Decoded

2018-02-23 18:00 METAR CYHZ 231800Z 32006KT 290V010 15SM BKN260 M01/M13 A3056 RMK CI7 SLP358 =
2018-02-23 17:00 METAR CYHZ 231700Z 30008KT 280V350 15SM SCT260 M02/M12 A3059 RMK CC4 SLP369 =
2018-02-23 16:00 METAR CYHZ 231600Z 30006KT 230V330 15SM FEW260 M03/M12 A3062 RMK CI2 PRESFR
                 SLP381 =
2018-02-23 15:00 METAR CYHZ 231500Z 02006KT 310V050 15SM FEW260 M05/M12 A3065 RMK CI1 SLP389 =
2018-02-23 14:00 METAR CYHZ 231400Z 02006KT 320V040 15SM FEW025 FEW260 M06/M13 A3066 RMK SC1CI1
                 SC TR SLP392 =
2018-02-23 13:00 METAR CYHZ 231300Z 01008KT 15SM FEW025 FEW260 M07/M12 A3066 RMK SC1CI1 SC TR CI
                 TR SLP392 =
2018-02-23 12:00 METAR CYHZ 231200Z 35006KT 15SM FEW025 FEW260 M08/M12 A3065 RMK SC1CI1 TR SC TR
                 CI SLP390 =
2018-02-23 11:00 METAR CYHZ 231100Z 35009KT 15SM FEW025 M09/M13 A3063 RMK SC1 SC TR SLP384 =
2018-02-23 10:00 METAR CYHZ 231000Z 35012G19KT 15SM SKC M08/M13 A3062 RMK SLP381 =
2018-02-23 09:00 METAR CYHZ 230900Z 35011G17KT 15SM SKC M08/M13 A3062 RMK SLP380 =
2018-02-23 08:00 METAR CYHZ 230800Z 35015G22KT 15SM SKC M07/M12 A3060 RMK SLP372 =
2018-02-23 07:00 METAR CYHZ 230700Z 34015G21KT 15SM SKC M06/M11 A3060 RMK SLP373 =
2018-02-23 06:00 METAR CYHZ 230600Z 36008KT 15SM SKC M06/M10 A3057 RMK SLP363 =
2018-02-23 05:00 METAR CYHZ 230500Z 33010KT 15SM SKC M05/M09 A3056 RMK SLP359 =
2018-02-23 04:00 METAR CYHZ 230400Z 32006KT 15SM SKC M05/M09 A3055 RMK SLP354 =
2018-02-23 03:00 METAR CYHZ 230300Z 36003KT 15SM FEW200 M04/M09 A3055 RMK CI1 SLP355 =
2018-02-23 02:00 METAR CYHZ 230200Z 02004KT 15SM BKN180 M04/M09 A3055 RMK AS6 SLP355 =
2018-02-23 01:00 METAR CYHZ 230100Z 03003KT 15SM OVC150 M03/M09 A3054 RMK AC8 SLP353 =
2018-02-23 00:00 METAR CYHZ 230000Z 02004KT 15SM OVC150 M03/M09 A3054 RMK AC8 SLP353 =
2018-02-22 23:00 METAR CYHZ 222300Z 02008KT 15SM OVC160 M02/M08 A3055 RMK AC8 SLP354 =
2018-02-22 22:00 METAR CYHZ 222200Z 32008KT 15SM OVC150 M02/M10 A3050 RMK AC8 SLP339 =
2018-02-22 21:00 METAR CYHZ 222100Z 33010KT 15SM OVC140 M01/M10 A3050 RMK AC8 SLP336 =
2018-02-22 20:00 METAR CYHZ 222000Z 32010KT 290V360 15SM SCT140 OVC190 M00/M10 A3050 RMK AC4AS4
                 PRESRR SLP335 =
2018-02-22 19:00 METAR CYHZ 221900Z 30006KT 280V360 15SM FEW020 FEW160 FEW190 SCT240 M00/M09
                 A3049 RMK SC1AC1AC1CI2 SC TR SLP333 =

Support USWX by starting your Amazon purchase here.